createdAt,value
2023-02-06T00:01:20.536Z,16.47
2023-02-06T00:03:47.373Z,29.93
2023-02-06T00:06:14.391Z,11.50
2023-02-06T00:08:41.989Z,18.00
2023-02-06T00:11:11.984Z,26.23
2023-02-06T00:13:39.265Z,16.83
2023-02-06T00:16:06.478Z,18.47
2023-02-06T00:18:33.159Z,27.33
2023-02-06T00:20:59.872Z,22.17
2023-02-06T00:23:26.628Z,25.73
2023-02-06T00:25:53.329Z,18.87
2023-02-06T00:28:20.239Z,23.05
2023-02-06T00:30:48.348Z,28.17
2023-02-06T00:33:15.449Z,26.27
2023-02-06T00:35:42.462Z,31.00
2023-02-06T00:38:10.960Z,21.40
2023-02-06T00:40:38.104Z,26.30
2023-02-06T00:43:04.979Z,27.43
2023-02-06T00:45:31.904Z,32.40
2023-02-06T00:47:58.864Z,33.70
2023-02-06T00:50:25.670Z,26.43
2023-02-06T00:52:52.592Z,30.55
2023-02-06T00:55:19.470Z,29.43
2023-02-06T00:57:46.261Z,20.80
2023-02-06T01:00:13.642Z,28.27
2023-02-06T01:02:40.467Z,33.27
2023-02-06T01:05:07.593Z,22.33
2023-02-06T01:07:36.478Z,32.90
2023-02-06T01:10:03.640Z,21.07
2023-02-06T01:12:30.393Z,24.05
2023-02-06T01:14:57.234Z,24.10
2023-02-06T01:17:23.953Z,26.30
2023-02-06T01:19:50.821Z,22.13
2023-02-06T01:22:17.560Z,27.13
2023-02-06T01:24:44.319Z,19.87
2023-02-06T01:27:11.222Z,27.20
2023-02-06T01:29:37.978Z,16.80
2023-02-06T01:32:04.851Z,20.63
2023-02-06T01:34:31.549Z,29.17
2023-02-06T01:36:58.356Z,28.70
2023-02-06T01:39:25.088Z,30.87
2023-02-06T01:41:51.823Z,26.87
2023-02-06T01:44:23.785Z,22.33
2023-02-06T01:46:56.009Z,20.77
2023-02-06T01:49:28.471Z,23.20
2023-02-06T01:52:02.070Z,22.87
2023-02-06T01:54:28.835Z,27.97
2023-02-06T01:57:00.851Z,28.42
2023-02-06T01:59:28.042Z,34.47
2023-02-06T02:01:54.943Z,26.27
2023-02-06T02:04:24.346Z,36.93
2023-02-06T02:07:02.847Z,31.37
2023-02-06T02:09:30.549Z,32.23
2023-02-06T02:11:57.352Z,28.13
2023-02-06T02:14:24.387Z,31.20
2023-02-06T02:16:57.257Z,32.43
2023-02-06T02:19:38.837Z,30.17
2023-02-06T02:22:42.903Z,15.63
2023-02-06T02:25:46.909Z,32.03
2023-02-06T02:28:48.215Z,30.53
2023-02-06T02:31:42.049Z,29.60
2023-02-06T02:34:30.292Z,33.77
2023-02-06T02:37:10.941Z,35.23
2023-02-06T02:40:07.967Z,27.43
2023-02-06T02:43:03.568Z,30.63
2023-02-06T02:45:43.559Z,30.77
2023-02-06T02:48:18.884Z,24.73
2023-02-06T02:50:46.548Z,30.05
2023-02-06T02:53:13.422Z,43.50
2023-02-06T02:55:40.420Z,34.17
2023-02-06T02:58:30.135Z,29.20
2023-02-06T03:01:09.361Z,21.20
2023-02-06T03:03:40.449Z,32.83
2023-02-06T03:06:40.908Z,34.17
2023-02-06T03:09:27.891Z,34.87
2023-02-06T03:12:17.762Z,31.47
2023-02-06T03:15:02.567Z,22.90
2023-02-06T03:17:37.943Z,31.80
2023-02-06T03:20:08.050Z,32.17
2023-02-06T03:22:36.913Z,29.77
2023-02-06T03:25:08.989Z,22.73
2023-02-06T03:27:39.349Z,23.03
2023-02-06T03:30:09.150Z,37.10
2023-02-06T03:32:45.947Z,27.30
2023-02-06T03:35:19.887Z,24.70
2023-02-06T03:37:48.018Z,27.00
2023-02-06T03:40:16.094Z,30.77
2023-02-06T03:42:46.841Z,25.70
2023-02-06T03:45:25.861Z,25.47
2023-02-06T03:47:55.259Z,29.10
2023-02-06T03:50:23.569Z,36.63
2023-02-06T03:52:51.735Z,32.30
2023-02-06T03:55:21.262Z,35.67
2023-02-06T03:57:53.256Z,36.13
2023-02-06T04:00:21.085Z,27.50
2023-02-06T04:02:49.097Z,26.53
2023-02-06T04:05:17.935Z,30.37
2023-02-06T04:07:45.095Z,37.73
2023-02-06T04:10:12.186Z,21.47
2023-02-06T04:12:38.915Z,35.40
2023-02-06T04:15:06.092Z,34.20
2023-02-06T04:17:49.723Z,42.67
2023-02-06T04:20:20.890Z,24.93
2023-02-06T04:22:47.778Z,32.50
2023-02-06T04:25:14.827Z,25.00
2023-02-06T04:27:41.598Z,35.03
2023-02-06T04:30:09.131Z,24.83
2023-02-06T04:32:35.925Z,41.60
2023-02-06T04:35:02.598Z,38.50
2023-02-06T04:37:29.333Z,29.80
2023-02-06T04:39:56.076Z,31.20
2023-02-06T04:42:23.246Z,33.83
2023-02-06T04:44:50.052Z,24.30
2023-02-06T04:47:16.847Z,40.07
2023-02-06T04:49:43.723Z,31.90
2023-02-06T04:52:10.462Z,36.80
2023-02-06T04:54:37.226Z,32.43
2023-02-06T04:57:03.985Z,27.13
2023-02-06T04:59:31.037Z,25.00
2023-02-06T05:01:57.712Z,25.83
2023-02-06T05:04:24.465Z,38.13
2023-02-06T05:06:51.197Z,37.70
2023-02-06T05:09:17.875Z,41.73
2023-02-06T05:11:44.612Z,35.47
2023-02-06T05:14:11.313Z,31.27
2023-02-06T05:16:38.296Z,27.67
2023-02-06T05:19:05.003Z,42.50
2023-02-06T05:21:31.729Z,42.08
2023-02-06T05:23:58.551Z,49.90
2023-02-06T05:26:25.320Z,28.77
2023-02-06T05:28:52.250Z,27.42
2023-02-06T05:31:20.318Z,30.30
2023-02-06T05:33:52.538Z,33.43
2023-02-06T05:36:20.243Z,36.83
2023-02-06T05:38:48.610Z,33.43
2023-02-06T05:41:16.255Z,34.60
2023-02-06T05:43:43.196Z,30.73
2023-02-06T05:46:11.217Z,38.93
2023-02-06T05:48:38.594Z,37.13
2023-02-06T05:51:05.645Z,33.23
2023-02-06T05:53:32.466Z,36.60
2023-02-06T05:55:59.190Z,26.17
2023-02-06T05:58:26.018Z,38.77
2023-02-06T06:00:52.733Z,32.88
2023-02-06T06:03:19.492Z,27.40
2023-02-06T06:05:46.316Z,27.53
2023-02-06T06:08:13.073Z,38.50
2023-02-06T06:10:39.998Z,31.52
2023-02-06T06:13:06.989Z,40.97
2023-02-06T06:15:34.221Z,33.10
2023-02-06T06:18:01.191Z,36.23
2023-02-06T06:20:27.891Z,41.10
2023-02-06T06:22:54.699Z,42.77
2023-02-06T06:25:21.354Z,38.37
2023-02-06T06:27:48.201Z,36.38
2023-02-06T06:30:15.058Z,46.17
2023-02-06T06:32:41.818Z,33.53
2023-02-06T06:35:09.027Z,27.97
2023-02-06T06:37:35.914Z,43.80
2023-02-06T06:40:02.714Z,31.07
2023-02-06T06:42:29.404Z,32.97
2023-02-06T06:44:56.163Z,30.23
2023-02-06T06:47:22.938Z,33.23
2023-02-06T06:49:49.651Z,37.55
2023-02-06T06:52:24.774Z,30.48
2023-02-06T06:54:53.048Z,28.30
2023-02-06T06:57:20.652Z,23.73
2023-02-06T06:59:47.464Z,41.83
2023-02-06T07:02:14.582Z,37.15
2023-02-06T07:04:41.317Z,36.00
2023-02-06T07:07:08.316Z,40.67
2023-02-06T07:09:35.195Z,39.90
2023-02-06T07:12:01.996Z,37.00
2023-02-06T07:14:28.677Z,43.33
2023-02-06T07:16:56.287Z,56.63
2023-02-06T07:19:22.981Z,51.77
2023-02-06T07:21:49.665Z,71.87
2023-02-06T07:24:16.389Z,61.20
2023-02-06T07:26:43.329Z,56.90
2023-02-06T07:29:10.267Z,57.33
2023-02-06T07:31:37.160Z,59.07
2023-02-06T07:34:04.003Z,61.13
2023-02-06T07:36:30.922Z,73.60
2023-02-06T07:38:57.818Z,65.67
2023-02-06T07:41:24.631Z,68.47
2023-02-06T07:43:51.381Z,66.27
2023-02-06T07:46:18.374Z,74.87
2023-02-06T07:48:45.158Z,95.67
2023-02-06T07:51:12.070Z,66.93
2023-02-06T07:53:39.226Z,72.40
2023-02-06T07:56:18.422Z,65.23
2023-02-06T07:58:49.292Z,60.45
2023-02-06T08:01:16.117Z,64.00
2023-02-06T08:03:42.883Z,72.03
2023-02-06T08:06:12.585Z,74.43
2023-02-06T08:08:39.405Z,53.83
2023-02-06T08:11:11.784Z,58.40
2023-02-06T08:13:38.770Z,56.03
2023-02-06T08:16:17.652Z,64.93
2023-02-06T08:18:44.751Z,63.13
2023-02-06T08:21:14.792Z,62.33
2023-02-06T08:23:42.428Z,59.83
2023-02-06T08:26:12.294Z,48.53
2023-02-06T08:28:41.299Z,53.63
2023-02-06T08:31:11.667Z,51.57
2023-02-06T08:33:38.691Z,49.70
2023-02-06T08:36:06.568Z,40.40
2023-02-06T08:38:33.760Z,53.67
2023-02-06T08:41:00.711Z,27.57
2023-02-06T08:43:27.591Z,34.80
2023-02-06T08:45:57.363Z,39.67
2023-02-06T08:48:24.093Z,27.15
2023-02-06T08:50:50.936Z,42.63
2023-02-06T08:53:17.926Z,34.70
2023-02-06T08:55:44.738Z,36.83
2023-02-06T08:58:11.620Z,38.53
2023-02-06T09:00:38.487Z,31.83
2023-02-06T09:03:05.564Z,35.60
2023-02-06T09:05:32.417Z,41.20
2023-02-06T09:07:59.148Z,43.00
2023-02-06T09:10:27.986Z,42.97
2023-02-06T09:12:55.140Z,43.60
2023-02-06T09:15:22.173Z,47.45
2023-02-06T09:17:49.033Z,38.77
2023-02-06T09:20:15.976Z,33.77
2023-02-06T09:22:44.542Z,37.97
2023-02-06T09:25:11.703Z,37.42
2023-02-06T09:27:38.439Z,40.97
2023-02-06T09:30:05.936Z,44.87
2023-02-06T09:32:32.782Z,50.77
2023-02-06T09:34:59.573Z,45.70
2023-02-06T09:37:26.313Z,48.03
2023-02-06T09:39:53.049Z,45.20
2023-02-06T09:42:34.655Z,33.60
2023-02-06T09:45:07.416Z,33.53
2023-02-06T09:47:37.666Z,42.63
2023-02-06T09:50:12.224Z,37.33
2023-02-06T09:52:56.816Z,31.37
2023-02-06T09:55:44.043Z,45.63
2023-02-06T09:58:19.359Z,34.88
2023-02-06T10:00:53.988Z,42.43
2023-02-06T10:03:44.306Z,32.60
2023-02-06T10:06:13.918Z,40.43
2023-02-06T10:08:57.198Z,39.87
2023-02-06T10:11:38.901Z,41.80
2023-02-06T10:14:28.436Z,29.75
2023-02-06T10:17:01.364Z,39.27
2023-02-06T10:19:56.354Z,20.43
2023-02-06T10:23:02.194Z,36.50
2023-02-06T10:25:32.845Z,32.73
2023-02-06T10:28:14.997Z,30.17
2023-02-06T10:30:41.697Z,35.93
2023-02-06T10:33:39.591Z,43.57
2023-02-06T10:36:46.151Z,33.63
2023-02-06T10:39:24.928Z,27.73
2023-02-06T10:42:08.835Z,36.57
2023-02-06T10:45:03.563Z,28.90
2023-02-06T10:47:47.754Z,33.45
2023-02-06T10:50:26.312Z,27.90
2023-02-06T10:52:56.313Z,35.27
2023-02-06T10:55:25.597Z,31.30
2023-02-06T10:58:12.319Z,25.10
2023-02-06T11:00:40.386Z,35.42
2023-02-06T11:03:14.340Z,30.60
2023-02-06T11:05:41.524Z,30.83
2023-02-06T11:08:35.684Z,25.50
2023-02-06T11:11:26.144Z,35.03
2023-02-06T11:14:01.143Z,41.73
2023-02-06T11:16:29.586Z,28.03
2023-02-06T11:19:01.032Z,33.60
2023-02-06T11:21:45.817Z,30.80
2023-02-06T11:24:14.921Z,35.53
2023-02-06T11:27:03.520Z,21.80
2023-02-06T11:29:37.817Z,25.40
2023-02-06T11:32:07.132Z,27.17
2023-02-06T11:34:36.521Z,21.40
2023-02-06T11:37:27.076Z,20.00
2023-02-06T11:39:53.773Z,26.60
2023-02-06T11:42:23.888Z,24.37
2023-02-06T11:44:52.104Z,27.13
2023-02-06T11:47:32.944Z,27.30
2023-02-06T11:50:14.907Z,27.10
2023-02-06T11:52:46.365Z,34.70
2023-02-06T11:55:35.238Z,24.77
2023-02-06T11:58:13.553Z,22.73
2023-02-06T12:00:41.398Z,28.20
2023-02-06T12:03:26.814Z,33.40
2023-02-06T12:05:55.293Z,34.77
2023-02-06T12:08:24.591Z,35.40
2023-02-06T12:11:04.063Z,44.33
2023-02-06T12:13:37.890Z,36.80
2023-02-06T12:16:07.578Z,36.90
2023-02-06T12:18:48.239Z,31.50
2023-02-06T12:21:24.407Z,31.40
2023-02-06T12:23:56.822Z,33.37
2023-02-06T12:26:28.771Z,32.37
2023-02-06T12:29:19.500Z,28.87
2023-02-06T12:32:09.324Z,31.63
2023-02-06T12:34:55.919Z,33.95
2023-02-06T12:37:41.557Z,23.70
2023-02-06T12:40:40.390Z,36.80
2023-02-06T12:43:13.712Z,25.13
2023-02-06T12:45:59.849Z,22.97
2023-02-06T12:48:42.834Z,18.10
2023-02-06T12:51:25.289Z,28.33
2023-02-06T12:53:56.237Z,30.83
2023-02-06T12:56:31.910Z,24.10
2023-02-06T12:59:17.699Z,28.83
2023-02-06T13:02:03.353Z,26.95
2023-02-06T13:04:34.121Z,18.47
2023-02-06T13:07:11.267Z,22.77
2023-02-06T13:09:46.967Z,27.23
2023-02-06T13:12:24.272Z,31.20
2023-02-06T13:14:57.082Z,24.85
2023-02-06T13:17:26.682Z,25.63
2023-02-06T13:20:09.739Z,25.00
2023-02-06T13:22:45.436Z,25.13
2023-02-06T13:25:30.582Z,23.87
2023-02-06T13:28:21.877Z,31.13
2023-02-06T13:30:50.731Z,27.70
2023-02-06T13:33:23.852Z,24.60
2023-02-06T13:36:15.612Z,22.90
2023-02-06T13:38:43.632Z,26.83
2023-02-06T13:41:16.100Z,21.30
2023-02-06T13:44:06.680Z,27.40
2023-02-06T13:46:43.443Z,22.50
2023-02-06T13:49:36.215Z,28.23
2023-02-06T13:52:21.015Z,24.97
2023-02-06T13:54:55.843Z,23.70
2023-02-06T13:57:35.665Z,24.40
2023-02-06T14:00:18.499Z,26.60
2023-02-06T14:03:06.362Z,25.33
2023-02-06T14:05:48.063Z,21.80
2023-02-06T14:08:38.575Z,28.93
2023-02-06T14:11:50.092Z,34.03
2023-02-06T14:15:05.897Z,22.13
2023-02-06T14:17:56.125Z,24.60
2023-02-06T14:20:41.774Z,28.13
2023-02-06T14:23:31.137Z,26.53
2023-02-06T14:26:15.978Z,26.20
2023-02-06T14:28:55.566Z,29.30
2023-02-06T14:31:34.255Z,32.63
2023-02-06T14:34:03.980Z,29.27
2023-02-06T14:36:55.927Z,23.57
2023-02-06T14:39:43.546Z,28.77
2023-02-06T14:42:34.482Z,28.87
2023-02-06T14:45:21.025Z,22.83
2023-02-06T14:47:48.536Z,26.23
2023-02-06T14:50:23.276Z,26.93
2023-02-06T14:53:06.661Z,39.60
2023-02-06T14:55:47.765Z,23.13
2023-02-06T14:58:32.846Z,25.20
2023-02-06T15:01:23.585Z,29.00
2023-02-06T15:03:52.721Z,29.17
2023-02-06T15:06:33.805Z,35.27
2023-02-06T15:09:01.762Z,22.00
2023-02-06T15:11:33.096Z,22.03
2023-02-06T15:14:02.602Z,15.33
2023-02-06T15:16:30.574Z,20.40
2023-02-06T15:19:17.905Z,19.80
2023-02-06T15:21:46.712Z,29.43
2023-02-06T15:24:40.208Z,27.10
2023-02-06T15:27:32.897Z,26.10
2023-02-06T15:30:01.283Z,19.20
2023-02-06T15:32:28.733Z,17.13
2023-02-06T15:34:55.765Z,14.20
2023-02-06T15:37:26.908Z,23.07
2023-02-06T15:39:54.381Z,26.63
2023-02-06T15:42:22.976Z,29.83
2023-02-06T15:44:50.347Z,28.00
2023-02-06T15:47:19.440Z,18.00
2023-02-06T15:49:49.755Z,27.03
2023-02-06T15:52:33.966Z,19.43
2023-02-06T15:55:01.111Z,24.50
2023-02-06T15:57:43.664Z,13.40
2023-02-06T16:00:31.999Z,20.87
2023-02-06T16:03:06.207Z,28.95
2023-02-06T16:05:43.152Z,17.60
2023-02-06T16:08:19.671Z,19.60
2023-02-06T16:11:29.115Z,16.17
2023-02-06T16:13:57.477Z,18.77
2023-02-06T16:16:25.795Z,23.10
2023-02-06T16:18:54.579Z,21.10
2023-02-06T16:21:32.769Z,21.80
2023-02-06T16:24:06.849Z,14.75
2023-02-06T16:26:49.503Z,14.30
2023-02-06T16:29:24.554Z,16.90
2023-02-06T16:32:01.109Z,19.47
2023-02-06T16:34:35.870Z,23.97
2023-02-06T16:37:26.288Z,16.23
2023-02-06T16:39:54.214Z,11.70
2023-02-06T16:42:27.172Z,9.30
2023-02-06T16:44:59.509Z,15.23
2023-02-06T16:47:27.048Z,12.47
2023-02-06T16:49:53.977Z,13.93
2023-02-06T16:52:32.474Z,12.00
2023-02-06T16:55:00.077Z,17.35
2023-02-06T16:57:41.575Z,14.40
2023-02-06T17:00:23.512Z,13.53
2023-02-06T17:02:56.818Z,16.97
2023-02-06T17:05:26.367Z,22.53
2023-02-06T17:07:54.002Z,18.07
2023-02-06T17:10:23.588Z,17.63
2023-02-06T17:12:50.717Z,21.63
2023-02-06T17:15:19.209Z,18.17
2023-02-06T17:17:46.361Z,23.20
2023-02-06T17:20:32.449Z,23.20
2023-02-06T17:22:59.460Z,16.80
2023-02-06T17:25:26.428Z,20.13
2023-02-06T17:27:53.677Z,17.70
2023-02-06T17:30:22.656Z,16.10
2023-02-06T17:32:49.469Z,15.90
2023-02-06T17:35:16.939Z,21.00
2023-02-06T17:37:43.973Z,21.77
2023-02-06T17:40:20.412Z,17.63
2023-02-06T17:42:47.809Z,19.70
2023-02-06T17:45:14.676Z,19.73
2023-02-06T17:47:41.674Z,21.13
2023-02-06T17:50:09.586Z,21.73
2023-02-06T17:52:36.497Z,23.13
2023-02-06T17:55:03.510Z,23.38
2023-02-06T17:57:30.909Z,18.50
2023-02-06T17:59:57.708Z,12.33
2023-02-06T18:02:24.514Z,22.40
2023-02-06T18:04:54.032Z,24.97
2023-02-06T18:07:21.515Z,20.50
2023-02-06T18:09:48.231Z,17.53
2023-02-06T18:12:15.900Z,17.43
2023-02-06T18:14:42.621Z,27.25
2023-02-06T18:17:09.945Z,31.63
2023-02-06T18:19:41.638Z,29.53
2023-02-06T18:22:10.292Z,28.50
2023-02-06T18:24:37.145Z,34.53
2023-02-06T18:27:05.609Z,27.77
2023-02-06T18:29:48.566Z,13.17
2023-02-06T18:32:18.067Z,16.33
2023-02-06T18:34:45.162Z,13.33
2023-02-06T18:37:11.998Z,12.80
2023-02-06T18:39:40.677Z,13.03
2023-02-06T18:42:26.208Z,11.30
2023-02-06T18:44:54.999Z,11.87
2023-02-06T18:47:21.800Z,15.83
2023-02-06T18:49:48.993Z,10.23
2023-02-06T18:52:16.463Z,8.33
2023-02-06T18:54:43.400Z,11.02
2023-02-06T18:57:10.258Z,9.10
2023-02-06T18:59:37.032Z,6.73
2023-02-06T19:02:04.123Z,15.33
2023-02-06T19:04:31.117Z,10.38
2023-02-06T19:06:57.964Z,11.57
2023-02-06T19:09:24.793Z,10.47
2023-02-06T19:11:51.577Z,12.53
2023-02-06T19:14:22.602Z,6.90
2023-02-06T19:16:50.845Z,11.53
2023-02-06T19:19:18.169Z,15.97
2023-02-06T19:21:45.564Z,10.27
2023-02-06T19:24:14.480Z,8.33
2023-02-06T19:26:42.048Z,7.17
2023-02-06T19:29:14.818Z,14.73
2023-02-06T19:31:42.727Z,14.23
2023-02-06T19:34:09.935Z,14.40
2023-02-06T19:36:37.300Z,8.43
2023-02-06T19:39:11.773Z,15.23
2023-02-06T19:41:38.720Z,9.60
2023-02-06T19:44:08.523Z,14.80
2023-02-06T19:46:36.410Z,8.90
2023-02-06T19:49:05.777Z,6.97
2023-02-06T19:51:37.936Z,9.33
2023-02-06T19:54:05.040Z,11.93
2023-02-06T19:56:39.257Z,10.20
2023-02-06T19:59:18.379Z,10.75
2023-02-06T20:01:53.505Z,4.93
2023-02-06T20:04:22.667Z,10.43
2023-02-06T20:06:51.195Z,6.03
2023-02-06T20:09:20.230Z,8.53
2023-02-06T20:11:49.049Z,11.07
2023-02-06T20:14:17.291Z,13.53
2023-02-06T20:16:44.898Z,5.13
2023-02-06T20:19:16.604Z,9.50
2023-02-06T20:21:46.411Z,11.13
2023-02-06T20:24:18.497Z,6.40
2023-02-06T20:26:45.603Z,13.03
2023-02-06T20:29:22.503Z,9.27
2023-02-06T20:31:50.513Z,12.67
2023-02-06T20:34:18.349Z,13.23
2023-02-06T20:36:46.461Z,45.30
2023-02-06T20:39:14.541Z,18.30
2023-02-06T20:41:41.972Z,16.27
2023-02-06T20:44:11.175Z,8.17
2023-02-06T20:46:37.941Z,16.02
2023-02-06T20:49:11.066Z,11.40
2023-02-06T20:51:37.765Z,13.20
2023-02-06T20:54:05.159Z,17.23
2023-02-06T20:56:32.154Z,9.57
2023-02-06T20:59:01.294Z,7.87
2023-02-06T21:01:30.676Z,11.73
2023-02-06T21:04:04.263Z,13.82
2023-02-06T21:06:31.636Z,11.93
2023-02-06T21:09:00.810Z,12.20
2023-02-06T21:11:29.655Z,9.88
2023-02-06T21:14:01.635Z,12.73
2023-02-06T21:16:30.028Z,8.13
2023-02-06T21:18:57.950Z,13.67
2023-02-06T21:21:26.211Z,16.20
2023-02-06T21:23:55.857Z,14.53
2023-02-06T21:26:23.930Z,9.13
2023-02-06T21:28:51.770Z,12.73
2023-02-06T21:31:22.529Z,9.45
2023-02-06T21:33:51.314Z,13.60
2023-02-06T21:36:18.750Z,17.80
2023-02-06T21:38:45.507Z,8.53
2023-02-06T21:41:14.661Z,11.13
2023-02-06T21:43:41.458Z,12.53
2023-02-06T21:46:09.739Z,11.20
2023-02-06T21:48:36.562Z,13.90
2023-02-06T21:51:14.784Z,11.23
2023-02-06T21:53:42.623Z,15.73
2023-02-06T21:56:14.612Z,14.27
2023-02-06T21:58:41.290Z,14.40
2023-02-06T22:01:12.757Z,14.83
2023-02-06T22:03:39.406Z,30.40
2023-02-06T22:06:08.686Z,13.25
2023-02-06T22:08:41.025Z,11.30
2023-02-06T22:11:14.830Z,21.92
2023-02-06T22:13:42.704Z,13.85
2023-02-06T22:16:11.328Z,30.37
2023-02-06T22:18:38.302Z,20.80
2023-02-06T22:21:14.220Z,11.60
2023-02-06T22:23:41.636Z,10.40
2023-02-06T22:26:10.472Z,15.00
2023-02-06T22:28:37.386Z,15.70
2023-02-06T22:31:09.749Z,11.73
2023-02-06T22:33:36.899Z,10.30
2023-02-06T22:36:05.501Z,15.57
2023-02-06T22:38:32.647Z,7.77
2023-02-06T22:41:01.905Z,16.80
2023-02-06T22:43:29.975Z,12.33
2023-02-06T22:45:56.864Z,18.27
2023-02-06T22:48:24.104Z,13.60
2023-02-06T22:50:53.376Z,13.90
2023-02-06T22:53:29.353Z,13.03
2023-02-06T22:56:19.405Z,18.23
2023-02-06T22:58:47.082Z,13.90
2023-02-06T23:01:14.661Z,12.87
2023-02-06T23:03:41.339Z,10.87
2023-02-06T23:06:11.909Z,12.07
2023-02-06T23:08:39.902Z,14.40
2023-02-06T23:11:07.046Z,11.43
2023-02-06T23:13:34.197Z,12.23
2023-02-06T23:16:01.972Z,18.08
2023-02-06T23:18:29.569Z,16.80
2023-02-06T23:21:02.206Z,14.02
2023-02-06T23:23:29.370Z,18.37
2023-02-06T23:25:56.756Z,10.80
2023-02-06T23:28:24.603Z,9.95
2023-02-06T23:30:52.692Z,10.77
2023-02-06T23:33:20.626Z,20.57
2023-02-06T23:35:47.857Z,11.87
2023-02-06T23:38:14.560Z,10.20
2023-02-06T23:40:41.269Z,11.00
2023-02-06T23:43:07.988Z,12.37
2023-02-06T23:45:35.089Z,9.25
2023-02-06T23:48:01.930Z,14.83
2023-02-06T23:50:29.031Z,14.83
2023-02-06T23:52:55.753Z,14.80
2023-02-06T23:55:24.857Z,9.60
2023-02-06T23:57:51.666Z,11.60
